Tsimlyansk, Russia
Current Conditions -  °F | °C
As of 1:30 AM on Tuesday 23 Dec 2014 (Local Time) from URRR Reporting Station
Broken Clouds Broken Clouds  
Wind Chill: 23°   Ceiling: 400
Heat Index: 32°   Visibility: 4mi
Dew Point: 32°   Wind: 11mph
Humidity: 100%   Direction: 230°SW
Pressure: 29.94"   Gusts: NA
Location:  47.65°N, 42.1°E
Report Text: URRR 222230Z 23005MPS 7000 BKN004 00/M00 Q1014 22CLRD70 NOSIGRMK QBB140 MAST OBSC
Loading
Personal Weather Stations






























Interactive Weather Map New forecast layout! Learn more

10-Day Weather Forecast

Advertisements
Track Severe Weather on mobile